createdAt,value
2022-08-14T00:02:01.416Z,21.10
2022-08-14T00:04:32.115Z,21.10
2022-08-14T00:07:06.017Z,21.10
2022-08-14T00:09:33.189Z,21.00
2022-08-14T00:12:00.135Z,21.00
2022-08-14T00:14:28.231Z,21.00
2022-08-14T00:16:55.970Z,20.90
2022-08-14T00:19:23.395Z,20.90
2022-08-14T00:21:51.982Z,20.80
2022-08-14T00:24:28.223Z,20.80
2022-08-14T00:26:57.039Z,20.80
2022-08-14T00:29:25.693Z,20.70
2022-08-14T00:31:56.638Z,20.70
2022-08-14T00:34:36.320Z,20.70
2022-08-14T00:37:05.759Z,20.60
2022-08-14T00:39:34.631Z,20.60
2022-08-14T00:42:02.221Z,20.50
2022-08-14T00:44:32.897Z,20.50
2022-08-14T00:47:10.696Z,20.60
2022-08-14T00:49:43.497Z,20.50
2022-08-14T00:52:17.683Z,20.50
2022-08-14T00:54:47.812Z,20.40
2022-08-14T00:57:15.004Z,20.40
2022-08-14T00:59:41.793Z,20.40
2022-08-14T01:02:09.518Z,20.30
2022-08-14T01:04:54.478Z,20.30
2022-08-14T01:07:23.645Z,20.30
2022-08-14T01:09:53.408Z,20.20
2022-08-14T01:12:27.230Z,20.10
2022-08-14T01:14:58.785Z,20.10
2022-08-14T01:17:49.464Z,20.10
2022-08-14T01:20:39.239Z,20.10
2022-08-14T01:23:16.641Z,20.10
2022-08-14T01:25:48.803Z,20.00
2022-08-14T01:28:46.516Z,20.00
2022-08-14T01:31:05.956Z,20.00
2022-08-14T01:33:59.271Z,20.00
2022-08-14T01:36:22.911Z,19.90
2022-08-14T01:38:51.502Z,19.90
2022-08-14T01:41:23.069Z,19.90
2022-08-14T01:44:02.221Z,19.90
2022-08-14T01:46:33.552Z,19.90
2022-08-14T01:49:07.672Z,19.90
2022-08-14T01:51:35.298Z,19.80
2022-08-14T01:54:15.839Z,19.80
2022-08-14T01:56:45.209Z,19.70
2022-08-14T01:59:18.284Z,19.70
2022-08-14T02:01:51.494Z,19.70
2022-08-14T02:04:54.935Z,19.60
2022-08-14T02:07:27.216Z,19.60
2022-08-14T02:10:13.146Z,19.60
2022-08-14T02:12:54.065Z,19.50
2022-08-14T02:15:24.771Z,19.50
2022-08-14T02:17:51.935Z,19.40
2022-08-14T02:20:23.808Z,19.40
2022-08-14T02:22:54.550Z,19.30
2022-08-14T02:25:22.515Z,19.30
2022-08-14T02:28:22.234Z,19.20
2022-08-14T02:30:38.334Z,19.30
2022-08-14T02:33:07.215Z,19.20
2022-08-14T02:35:34.381Z,19.10
2022-08-14T02:38:11.443Z,19.10
2022-08-14T02:40:39.207Z,19.10
2022-08-14T02:43:07.985Z,19.10
2022-08-14T02:45:38.322Z,19.10
2022-08-14T02:49:02.508Z,19.00
2022-08-14T02:51:00.847Z,19.00
2022-08-14T02:53:29.250Z,19.00
2022-08-14T02:56:03.173Z,19.00
2022-08-14T02:58:47.873Z,18.90
2022-08-14T03:01:17.436Z,18.90
2022-08-14T03:03:48.311Z,18.90
2022-08-14T03:06:20.661Z,18.80
2022-08-14T03:09:02.157Z,18.80
2022-08-14T03:11:35.229Z,18.70
2022-08-14T03:14:02.148Z,18.80
2022-08-14T03:16:35.706Z,18.80
2022-08-14T03:19:09.594Z,18.80
2022-08-14T03:21:39.830Z,18.70
2022-08-14T03:24:16.587Z,18.70
2022-08-14T03:26:57.475Z,18.70
2022-08-14T03:29:26.315Z,18.70
2022-08-14T03:31:53.876Z,18.70
2022-08-14T03:34:24.965Z,18.70
2022-08-14T03:37:39.531Z,18.70
2022-08-14T03:39:57.382Z,18.60
2022-08-14T03:42:25.165Z,18.60
2022-08-14T03:45:18.482Z,18.50
2022-08-14T03:47:56.155Z,18.50
2022-08-14T03:50:30.736Z,18.40
2022-08-14T03:53:01.765Z,18.40
2022-08-14T03:55:30.646Z,18.40
2022-08-14T03:57:58.127Z,18.40
2022-08-14T04:00:40.644Z,18.40
2022-08-14T04:03:15.402Z,18.30
2022-08-14T04:05:49.090Z,18.30
2022-08-14T04:08:23.125Z,18.30
2022-08-14T04:10:57.502Z,18.30
2022-08-14T04:13:25.026Z,18.20
2022-08-14T04:15:56.247Z,18.20
2022-08-14T04:18:30.103Z,18.30
2022-08-14T04:20:58.600Z,18.20
2022-08-14T04:23:29.465Z,18.20
2022-08-14T04:26:01.518Z,18.20
2022-08-14T04:29:07.188Z,18.20
2022-08-14T04:31:16.139Z,18.20
2022-08-14T04:33:43.187Z,18.20
2022-08-14T04:36:16.111Z,18.20
2022-08-14T04:39:03.553Z,18.10
2022-08-14T04:41:49.204Z,18.20
2022-08-14T04:44:26.688Z,18.10
2022-08-14T04:47:22.600Z,18.20
2022-08-14T04:49:57.382Z,18.20
2022-08-14T04:52:25.303Z,18.20
2022-08-14T04:54:52.414Z,18.20
2022-08-14T04:57:21.921Z,18.20
2022-08-14T04:59:50.810Z,18.20
2022-08-14T05:02:18.140Z,18.30
2022-08-14T05:04:56.773Z,18.30
2022-08-14T05:07:46.465Z,18.30
2022-08-14T05:10:16.595Z,18.30
2022-08-14T05:13:13.652Z,18.40
2022-08-14T05:15:39.391Z,18.40
2022-08-14T05:18:17.767Z,18.40
2022-08-14T05:22:00.579Z,18.50
2022-08-14T05:23:55.748Z,18.50
2022-08-14T05:26:23.812Z,18.60
2022-08-14T05:28:50.763Z,18.60
2022-08-14T05:31:20.370Z,18.70
2022-08-14T05:33:54.936Z,18.70
2022-08-14T05:36:25.649Z,18.80
2022-08-14T05:38:54.278Z,18.90
2022-08-14T05:41:22.392Z,18.90
2022-08-14T05:43:51.164Z,19.10
2022-08-14T05:46:22.868Z,19.10
2022-08-14T05:48:51.749Z,19.10
2022-08-14T05:51:18.937Z,19.30
2022-08-14T05:54:01.711Z,19.30
2022-08-14T05:56:32.833Z,19.40
2022-08-14T05:59:03.987Z,19.40
2022-08-14T06:01:31.605Z,19.50
2022-08-14T06:04:01.792Z,19.60
2022-08-14T06:06:36.421Z,19.70
2022-08-14T06:09:05.219Z,19.90
2022-08-14T06:11:31.956Z,20.20
2022-08-14T06:13:59.425Z,21.20
2022-08-14T06:16:26.409Z,22.40
2022-08-14T06:18:54.309Z,23.60
2022-08-14T06:21:26.446Z,24.80
2022-08-14T06:23:53.289Z,25.90
2022-08-14T06:26:22.179Z,27.00
2022-08-14T06:28:52.387Z,27.90
2022-08-14T06:31:20.882Z,28.50
2022-08-14T06:35:09.438Z,29.20
2022-08-14T06:36:36.706Z,29.80
2022-08-14T06:39:03.709Z,30.50
2022-08-14T06:41:56.772Z,31.00
2022-08-14T06:44:22.030Z,31.50
2022-08-14T06:46:57.742Z,32.00
2022-08-14T06:49:27.157Z,32.50
2022-08-14T06:51:54.517Z,32.70
2022-08-14T06:54:21.486Z,33.00
2022-08-14T06:56:54.154Z,33.30
2022-08-14T06:59:21.410Z,33.70
2022-08-14T07:02:13.190Z,33.90
2022-08-14T07:04:59.056Z,34.00
2022-08-14T07:07:28.672Z,33.90
2022-08-14T07:09:55.910Z,33.80
2022-08-14T07:12:34.828Z,33.60
2022-08-14T07:15:10.994Z,33.50
2022-08-14T07:17:52.073Z,33.70
2022-08-14T07:23:07.297Z,34.20
2022-08-14T07:25:37.553Z,34.20
2022-08-14T07:28:21.287Z,34.20
2022-08-14T07:30:51.581Z,34.10
2022-08-14T07:33:20.753Z,34.00
2022-08-14T07:35:57.910Z,33.90
2022-08-14T07:38:33.567Z,33.80
2022-08-14T07:41:12.035Z,34.00
2022-08-14T07:43:42.496Z,34.20
2022-08-14T07:46:09.354Z,34.40
2022-08-14T07:48:40.734Z,34.50
2022-08-14T07:51:10.801Z,34.60
2022-08-14T07:53:40.544Z,34.70
2022-08-14T07:56:21.695Z,34.70
2022-08-14T07:58:55.216Z,34.70
2022-08-14T08:01:27.697Z,34.50
2022-08-14T08:04:00.055Z,34.40
2022-08-14T08:06:28.265Z,34.30
2022-08-14T08:09:01.038Z,34.10
2022-08-14T08:11:35.015Z,34.10
2022-08-14T08:14:10.344Z,34.10
2022-08-14T08:16:43.559Z,34.10
2022-08-14T08:19:12.680Z,34.30
2022-08-14T08:21:43.739Z,34.50
2022-08-14T08:24:11.273Z,34.60
2022-08-14T08:26:42.021Z,34.70
2022-08-14T08:29:09.631Z,34.70
2022-08-14T08:31:55.753Z,34.70
2022-08-14T08:34:23.786Z,34.80
2022-08-14T08:36:51.699Z,34.90
2022-08-14T08:39:22.444Z,35.00
2022-08-14T08:41:53.221Z,35.10
2022-08-14T08:44:32.342Z,35.30
2022-08-14T08:47:06.115Z,35.40
2022-08-14T08:49:52.601Z,35.50
2022-08-14T08:52:29.181Z,35.50
2022-08-14T08:54:58.732Z,35.30
2022-08-14T08:57:26.024Z,35.40
2022-08-14T08:59:55.058Z,35.50
2022-08-14T09:02:25.986Z,35.50
2022-08-14T09:05:02.310Z,35.20
2022-08-14T09:07:30.526Z,35.10
2022-08-14T09:10:00.030Z,35.00
2022-08-14T09:12:32.370Z,35.00
2022-08-14T09:15:11.268Z,34.90
2022-08-14T09:17:41.494Z,35.00
2022-08-14T09:20:11.623Z,35.10
2022-08-14T09:22:48.220Z,35.20
2022-08-14T09:25:17.035Z,35.10
2022-08-14T09:27:46.721Z,35.00
2022-08-14T09:30:32.121Z,34.90
2022-08-14T09:33:08.919Z,34.90
2022-08-14T09:36:02.864Z,34.90
2022-08-14T09:38:32.435Z,34.80
2022-08-14T09:41:11.788Z,34.60
2022-08-14T09:44:05.250Z,34.50
2022-08-14T09:46:34.364Z,34.20
2022-08-14T09:49:02.788Z,34.00
2022-08-14T09:51:32.605Z,34.00
2022-08-14T09:54:22.770Z,34.00
2022-08-14T09:56:57.347Z,34.20
2022-08-14T09:59:28.003Z,34.30
2022-08-14T10:01:57.249Z,34.40
2022-08-14T10:04:35.738Z,34.30
2022-08-14T10:07:05.959Z,34.40
2022-08-14T10:09:46.112Z,34.30
2022-08-14T10:12:53.157Z,34.00
2022-08-14T10:15:25.156Z,33.90
2022-08-14T10:18:08.149Z,33.80
2022-08-14T10:20:45.934Z,34.00
2022-08-14T10:23:20.807Z,33.90
2022-08-14T10:25:57.407Z,34.00
2022-08-14T10:29:03.534Z,34.00
2022-08-14T10:31:25.382Z,34.10
2022-08-14T10:34:12.994Z,34.20
2022-08-14T10:36:47.799Z,34.10
2022-08-14T10:39:20.933Z,34.00
2022-08-14T10:41:49.405Z,34.10
2022-08-14T10:44:25.017Z,34.10
2022-08-14T10:47:40.288Z,34.00
2022-08-14T10:49:57.628Z,34.10
2022-08-14T10:52:31.779Z,34.00
2022-08-14T10:55:12.789Z,34.10
2022-08-14T10:57:51.587Z,34.10
2022-08-14T11:00:30.166Z,34.00
2022-08-14T11:03:11.066Z,34.00
2022-08-14T11:05:41.339Z,34.00
2022-08-14T11:08:12.664Z,33.90
2022-08-14T11:10:47.363Z,33.90
2022-08-14T11:13:24.174Z,33.80
2022-08-14T11:15:52.691Z,33.80
2022-08-14T11:18:32.097Z,33.80
2022-08-14T11:21:06.693Z,33.70
2022-08-14T11:23:38.545Z,33.80
2022-08-14T11:26:08.935Z,34.00
2022-08-14T11:28:47.258Z,34.20
2022-08-14T11:31:22.197Z,34.30
2022-08-14T11:33:56.846Z,34.40
2022-08-14T11:36:56.901Z,34.50
2022-08-14T11:39:23.192Z,34.60
2022-08-14T11:42:57.348Z,34.70
2022-08-14T11:44:53.889Z,34.80
2022-08-14T11:47:27.249Z,34.90
2022-08-14T11:50:33.657Z,34.90
2022-08-14T11:53:04.918Z,34.90
2022-08-14T11:55:38.316Z,34.90
2022-08-14T11:58:10.962Z,35.00
2022-08-14T12:00:53.657Z,35.00
2022-08-14T12:03:27.191Z,35.00
2022-08-14T12:06:27.753Z,35.00
2022-08-14T12:08:56.917Z,35.10
2022-08-14T12:11:26.686Z,35.30
2022-08-14T12:13:56.002Z,35.30
2022-08-14T12:16:23.101Z,35.30
2022-08-14T12:18:50.870Z,35.30
2022-08-14T12:21:22.287Z,35.30
2022-08-14T12:24:02.541Z,35.30
2022-08-14T12:26:39.178Z,35.20
2022-08-14T12:29:13.254Z,35.10
2022-08-14T12:31:44.672Z,35.10
2022-08-14T12:34:20.323Z,35.00
2022-08-14T12:36:47.776Z,34.90
2022-08-14T12:39:21.250Z,35.00
2022-08-14T12:42:00.329Z,35.20
2022-08-14T12:44:37.299Z,35.40
2022-08-14T12:47:13.344Z,35.60
2022-08-14T12:49:58.392Z,35.70
2022-08-14T12:52:43.071Z,35.90
2022-08-14T12:55:21.135Z,35.90
2022-08-14T12:57:53.162Z,36.00
2022-08-14T13:00:25.479Z,35.90
2022-08-14T13:02:56.813Z,35.80
2022-08-14T13:05:31.999Z,35.40
2022-08-14T13:08:04.489Z,35.00
2022-08-14T13:10:52.035Z,34.70
2022-08-14T13:13:20.668Z,34.40
2022-08-14T13:15:57.255Z,34.30
2022-08-14T13:18:28.171Z,34.20
2022-08-14T13:21:01.038Z,34.10
2022-08-14T13:23:36.229Z,33.80
2022-08-14T13:26:04.611Z,33.80
2022-08-14T13:28:37.528Z,33.40
2022-08-14T13:31:11.331Z,33.50
2022-08-14T13:33:40.738Z,33.80
2022-08-14T13:36:10.177Z,34.10
2022-08-14T13:38:51.159Z,34.40
2022-08-14T13:41:27.713Z,34.70
2022-08-14T13:44:00.279Z,34.80
2022-08-14T13:46:27.955Z,35.00
2022-08-14T13:48:56.435Z,35.00
2022-08-14T13:51:29.755Z,35.20
2022-08-14T13:54:10.108Z,35.40
2022-08-14T13:56:39.651Z,35.50
2022-08-14T13:59:07.066Z,35.40
2022-08-14T14:01:43.078Z,35.50
2022-08-14T14:04:19.012Z,35.60
2022-08-14T14:06:49.063Z,35.60
2022-08-14T14:09:23.688Z,35.60
2022-08-14T14:11:53.071Z,35.50
2022-08-14T14:14:45.123Z,35.40
2022-08-14T14:17:12.509Z,35.40
2022-08-14T14:19:41.480Z,35.50
2022-08-14T14:22:09.793Z,35.60
2022-08-14T14:24:36.735Z,35.60
2022-08-14T14:27:30.047Z,35.70
2022-08-14T14:29:55.448Z,35.60
2022-08-14T14:32:32.003Z,35.70
2022-08-14T14:35:02.746Z,35.70
2022-08-14T14:37:30.544Z,35.60
2022-08-14T14:40:52.590Z,35.40
2022-08-14T14:42:53.338Z,35.10
2022-08-14T14:45:23.919Z,34.90
2022-08-14T14:47:59.173Z,34.70
2022-08-14T14:50:26.550Z,34.50
2022-08-14T14:53:12.412Z,34.30
2022-08-14T14:55:43.055Z,34.30
2022-08-14T14:58:30.936Z,34.30
2022-08-14T15:01:03.905Z,34.40
2022-08-14T15:03:36.805Z,34.50
2022-08-14T15:06:04.839Z,34.50
2022-08-14T15:08:56.920Z,34.50
2022-08-14T15:11:20.039Z,34.50
2022-08-14T15:13:53.262Z,34.60
2022-08-14T15:16:20.625Z,34.60
2022-08-14T15:18:49.122Z,34.70
2022-08-14T15:21:16.073Z,34.80
2022-08-14T15:23:44.188Z,34.70
2022-08-14T15:26:24.245Z,34.60
2022-08-14T15:29:05.885Z,34.60
2022-08-14T15:31:36.315Z,34.60
2022-08-14T15:34:45.031Z,34.60
2022-08-14T15:37:10.959Z,34.50
2022-08-14T15:39:41.502Z,34.40
2022-08-14T15:42:14.623Z,34.30
2022-08-14T15:44:57.206Z,34.20
2022-08-14T15:47:29.899Z,34.10
2022-08-14T15:49:59.709Z,34.10
2022-08-14T15:52:35.100Z,33.90
2022-08-14T15:55:08.053Z,33.80
2022-08-14T15:57:36.167Z,33.80
2022-08-14T16:00:43.919Z,33.80
2022-08-14T16:03:15.906Z,33.70
2022-08-14T16:05:44.538Z,33.50
2022-08-14T16:08:26.871Z,33.40
2022-08-14T16:10:58.848Z,33.10
2022-08-14T16:13:41.767Z,33.00
2022-08-14T16:16:47.432Z,32.90
2022-08-14T16:18:59.626Z,32.80
2022-08-14T16:21:31.574Z,32.60
2022-08-14T16:24:00.429Z,32.60
2022-08-14T16:26:29.835Z,32.50
2022-08-14T16:29:04.838Z,32.40
2022-08-14T16:31:36.086Z,32.30
2022-08-14T16:34:44.557Z,32.30
2022-08-14T16:36:54.626Z,32.30
2022-08-14T16:39:22.533Z,32.40
2022-08-14T16:41:52.236Z,32.40
2022-08-14T16:44:21.978Z,32.50
2022-08-14T16:47:03.902Z,32.50
2022-08-14T16:50:02.749Z,32.50
2022-08-14T16:52:26.037Z,32.50
2022-08-14T16:55:07.555Z,32.40
2022-08-14T16:57:46.771Z,32.40
2022-08-14T17:00:32.968Z,32.40
2022-08-14T17:03:11.628Z,32.40
2022-08-14T17:05:41.731Z,32.40
2022-08-14T17:08:31.591Z,32.50
2022-08-14T17:11:11.918Z,32.50
2022-08-14T17:13:58.081Z,32.40
2022-08-14T17:16:35.964Z,32.40
2022-08-14T17:19:05.659Z,32.30
2022-08-14T17:21:38.471Z,32.30
2022-08-14T17:24:56.206Z,32.20
2022-08-14T17:26:59.827Z,32.10
2022-08-14T17:29:32.019Z,31.90
2022-08-14T17:32:01.866Z,31.80
2022-08-14T17:34:49.425Z,31.70
2022-08-14T17:37:30.428Z,31.70
2022-08-14T17:40:02.106Z,31.60
2022-08-14T17:42:51.571Z,31.40
2022-08-14T17:45:41.151Z,31.40
2022-08-14T17:49:13.949Z,31.30
2022-08-14T17:51:12.412Z,31.00
2022-08-14T17:53:53.460Z,30.80
2022-08-14T17:56:30.835Z,30.60
2022-08-14T17:59:05.725Z,30.50
2022-08-14T18:01:38.684Z,30.30
2022-08-14T18:04:24.796Z,30.20
2022-08-14T18:07:16.881Z,30.10
2022-08-14T18:09:56.997Z,30.10
2022-08-14T18:12:32.886Z,30.00
2022-08-14T18:15:16.205Z,29.90
2022-08-14T18:17:53.291Z,29.90
2022-08-14T18:21:41.044Z,29.80
2022-08-14T18:23:13.839Z,29.70
2022-08-14T18:25:54.511Z,29.60
2022-08-14T18:28:47.827Z,29.50
2022-08-14T18:31:21.672Z,29.40
2022-08-14T18:33:58.562Z,29.30
2022-08-14T18:36:47.719Z,29.20
2022-08-14T18:40:02.285Z,29.10
2022-08-14T18:42:23.495Z,29.00
2022-08-14T18:44:50.891Z,28.90
2022-08-14T18:47:23.393Z,28.80
2022-08-14T18:49:58.352Z,28.70
2022-08-14T18:52:40.124Z,28.70
2022-08-14T18:55:15.983Z,28.60
2022-08-14T18:57:58.045Z,28.40
2022-08-14T19:00:39.799Z,28.40
2022-08-14T19:03:11.451Z,28.30
2022-08-14T19:05:41.247Z,28.20
2022-08-14T19:08:17.874Z,28.20
2022-08-14T19:10:51.958Z,28.10
2022-08-14T19:13:44.689Z,28.10
2022-08-14T19:16:18.617Z,28.00
2022-08-14T19:19:01.312Z,27.90
2022-08-14T19:21:32.806Z,27.80
2022-08-14T19:24:29.333Z,27.70
2022-08-14T19:27:23.665Z,27.60
2022-08-14T19:30:10.781Z,27.50
2022-08-14T19:32:52.186Z,27.50
2022-08-14T19:35:24.363Z,27.30
2022-08-14T19:37:54.895Z,27.20
2022-08-14T19:40:39.180Z,27.20
2022-08-14T19:43:09.563Z,27.10
2022-08-14T19:45:38.179Z,27.00
2022-08-14T19:48:12.799Z,27.00
2022-08-14T19:50:44.973Z,26.90
2022-08-14T19:53:17.534Z,26.80
2022-08-14T19:55:59.751Z,26.80
2022-08-14T19:58:54.768Z,26.70
2022-08-14T20:01:37.405Z,26.70
2022-08-14T20:04:45.979Z,26.60
2022-08-14T20:07:00.158Z,26.50
2022-08-14T20:11:06.555Z,26.50
2022-08-14T20:12:29.251Z,26.40
2022-08-14T20:15:17.816Z,26.30
2022-08-14T20:17:52.710Z,26.20
2022-08-14T20:20:30.687Z,26.20
2022-08-14T20:23:10.698Z,26.10
2022-08-14T20:25:45.210Z,26.10
2022-08-14T20:28:33.024Z,26.00
2022-08-14T20:31:14.336Z,25.90
2022-08-14T20:34:03.406Z,25.90
2022-08-14T20:36:30.804Z,25.80
2022-08-14T20:39:00.347Z,25.70
2022-08-14T20:41:27.463Z,25.70
2022-08-14T20:44:15.867Z,25.70
2022-08-14T20:46:47.882Z,25.60
2022-08-14T20:49:18.544Z,25.60
2022-08-14T20:51:58.957Z,25.50
2022-08-14T20:54:33.569Z,25.40
2022-08-14T20:57:10.535Z,25.40
2022-08-14T20:59:43.911Z,25.40
2022-08-14T21:02:46.906Z,25.30
2022-08-14T21:05:19.589Z,25.20
2022-08-14T21:07:50.344Z,25.20
2022-08-14T21:10:34.122Z,25.10
2022-08-14T21:13:26.256Z,25.10
2022-08-14T21:15:57.651Z,25.00
2022-08-14T21:18:28.650Z,25.00
2022-08-14T21:20:57.498Z,24.90
2022-08-14T21:23:24.478Z,24.90
2022-08-14T21:25:54.497Z,24.80
2022-08-14T21:28:30.055Z,24.70
2022-08-14T21:31:01.789Z,24.70
2022-08-14T21:33:29.020Z,24.70
2022-08-14T21:35:58.173Z,24.60
2022-08-14T21:38:33.626Z,24.50
2022-08-14T21:41:42.557Z,24.50
2022-08-14T21:44:18.009Z,24.50
2022-08-14T21:46:55.683Z,24.40
2022-08-14T21:49:34.098Z,24.30
2022-08-14T21:52:50.893Z,24.30
2022-08-14T21:54:56.143Z,24.30
2022-08-14T21:57:56.631Z,24.30
2022-08-14T22:00:35.326Z,24.20
2022-08-14T22:03:08.845Z,24.20
2022-08-14T22:05:38.171Z,24.20
2022-08-14T22:08:06.556Z,24.10
2022-08-14T22:10:35.023Z,24.10
2022-08-14T22:13:03.193Z,24.10
2022-08-14T22:15:32.450Z,24.00
2022-08-14T22:18:00.346Z,24.00
2022-08-14T22:20:29.939Z,24.00
2022-08-14T22:22:58.388Z,23.90
2022-08-14T22:25:33.330Z,23.90
2022-08-14T22:28:03.362Z,23.90
2022-08-14T22:30:30.585Z,23.90
2022-08-14T22:32:58.589Z,23.80
2022-08-14T22:35:27.927Z,23.80
2022-08-14T22:38:35.013Z,23.80
2022-08-14T22:41:06.531Z,23.80
2022-08-14T22:43:35.105Z,23.70
2022-08-14T22:46:14.590Z,23.70
2022-08-14T22:48:44.493Z,23.60
2022-08-14T22:51:17.777Z,23.60
2022-08-14T22:53:46.225Z,23.60
2022-08-14T22:56:20.666Z,23.50
2022-08-14T22:58:49.900Z,23.50
2022-08-14T23:01:57.172Z,23.50
2022-08-14T23:04:35.416Z,23.50
2022-08-14T23:07:22.871Z,23.40
2022-08-14T23:10:33.480Z,23.40
2022-08-14T23:12:54.802Z,23.40
2022-08-14T23:15:23.547Z,23.30
2022-08-14T23:17:51.156Z,23.30
2022-08-14T23:20:22.362Z,23.20
2022-08-14T23:22:52.468Z,23.20
2022-08-14T23:25:57.158Z,23.20
2022-08-14T23:28:34.348Z,23.20
2022-08-14T23:31:05.855Z,23.20
2022-08-14T23:33:35.289Z,23.20
2022-08-14T23:36:31.964Z,23.20
2022-08-14T23:38:53.551Z,23.20
2022-08-14T23:41:21.023Z,23.20
2022-08-14T23:43:50.489Z,23.10
2022-08-14T23:46:19.300Z,23.20
2022-08-14T23:48:46.638Z,23.20
2022-08-14T23:51:16.084Z,23.10
2022-08-14T23:53:48.086Z,23.10
2022-08-14T23:56:19.404Z,23.00
2022-08-14T23:58:57.412Z,23.00
